sensor_id;sensor_type;location;lat;lon;timestamp;temperature;humidity
60495;DHT22;46342;49.046;11.920;2023-06-14T00:00:17;18.40;35.40
60495;DHT22;46342;49.046;11.920;2023-06-14T00:02:43;18.40;35.60
60495;DHT22;46342;49.046;11.920;2023-06-14T00:05:09;18.30;35.60
60495;DHT22;46342;49.046;11.920;2023-06-14T00:07:36;18.30;35.70
60495;DHT22;46342;49.046;11.920;2023-06-14T00:10:03;18.20;35.80
60495;DHT22;46342;49.046;11.920;2023-06-14T00:12:29;18.20;35.90
60495;DHT22;46342;49.046;11.920;2023-06-14T00:14:55;18.20;36.60
60495;DHT22;46342;49.046;11.920;2023-06-14T00:17:21;18.10;35.60
60495;DHT22;46342;49.046;11.920;2023-06-14T00:19:48;18.10;35.80
60495;DHT22;46342;49.046;11.920;2023-06-14T00:22:13;18.10;36.00
60495;DHT22;46342;49.046;11.920;2023-06-14T00:24:39;18.00;36.20
60495;DHT22;46342;49.046;11.920;2023-06-14T00:27:05;18.00;36.30
60495;DHT22;46342;49.046;11.920;2023-06-14T00:29:31;18.00;36.40
60495;DHT22;46342;49.046;11.920;2023-06-14T00:31:56;17.90;36.40
60495;DHT22;46342;49.046;11.920;2023-06-14T00:34:22;17.90;36.60
60495;DHT22;46342;49.046;11.920;2023-06-14T00:36:47;17.90;36.60
60495;DHT22;46342;49.046;11.920;2023-06-14T00:39:13;17.80;36.60
60495;DHT22;46342;49.046;11.920;2023-06-14T00:41:39;17.80;36.80
60495;DHT22;46342;49.046;11.920;2023-06-14T00:44:05;17.80;36.90
60495;DHT22;46342;49.046;11.920;2023-06-14T00:46:30;17.80;37.70
60495;DHT22;46342;49.046;11.920;2023-06-14T00:48:56;17.80;37.10
60495;DHT22;46342;49.046;11.920;2023-06-14T00:51:23;17.70;37.10
60495;DHT22;46342;49.046;11.920;2023-06-14T00:53:50;17.70;37.20
60495;DHT22;46342;49.046;11.920;2023-06-14T00:56:16;17.70;37.30
60495;DHT22;46342;49.046;11.920;2023-06-14T00:58:41;17.70;38.00
60495;DHT22;46342;49.046;11.920;2023-06-14T01:01:08;17.60;37.40
60495;DHT22;46342;49.046;11.920;2023-06-14T01:03:34;17.60;37.50
60495;DHT22;46342;49.046;11.920;2023-06-14T01:06:05;17.60;37.70
60495;DHT22;46342;49.046;11.920;2023-06-14T01:08:50;17.60;38.20
60495;DHT22;46342;49.046;11.920;2023-06-14T01:11:25;17.60;38.60
60495;DHT22;46342;49.046;11.920;2023-06-14T01:13:53;17.60;38.10
60495;DHT22;46342;49.046;11.920;2023-06-14T01:16:21;17.50;38.40
60495;DHT22;46342;49.046;11.920;2023-06-14T01:18:47;17.50;37.80
60495;DHT22;46342;49.046;11.920;2023-06-14T01:21:24;17.40;37.90
60495;DHT22;46342;49.046;11.920;2023-06-14T01:23:50;17.50;38.90
60495;DHT22;46342;49.046;11.920;2023-06-14T01:26:22;17.40;38.10
60495;DHT22;46342;49.046;11.920;2023-06-14T01:28:49;17.40;38.70
60495;DHT22;46342;49.046;11.920;2023-06-14T01:31:20;17.30;38.40
60495;DHT22;46342;49.046;11.920;2023-06-14T01:33:48;17.30;38.80
60495;DHT22;46342;49.046;11.920;2023-06-14T01:36:15;17.20;38.40
60495;DHT22;46342;49.046;11.920;2023-06-14T01:38:42;17.20;38.40
60495;DHT22;46342;49.046;11.920;2023-06-14T01:41:08;17.20;38.40
60495;DHT22;46342;49.046;11.920;2023-06-14T01:43:35;17.20;38.40
60495;DHT22;46342;49.046;11.920;2023-06-14T01:46:02;17.10;38.50
60495;DHT22;46342;49.046;11.920;2023-06-14T01:48:28;17.00;38.60
60495;DHT22;46342;49.046;11.920;2023-06-14T01:50:54;17.00;38.60
60495;DHT22;46342;49.046;11.920;2023-06-14T01:53:19;17.00;38.70
60495;DHT22;46342;49.046;11.920;2023-06-14T01:55:46;16.90;39.30
60495;DHT22;46342;49.046;11.920;2023-06-14T01:58:14;16.90;38.80
60495;DHT22;46342;49.046;11.920;2023-06-14T02:00:41;17.00;39.60
60495;DHT22;46342;49.046;11.920;2023-06-14T02:03:08;16.90;38.60
60495;DHT22;46342;49.046;11.920;2023-06-14T02:05:34;16.80;38.60
60495;DHT22;46342;49.046;11.920;2023-06-14T02:08:00;16.80;38.80
60495;DHT22;46342;49.046;11.920;2023-06-14T02:10:25;16.70;38.80
60495;DHT22;46342;49.046;11.920;2023-06-14T02:12:51;16.70;38.90
60495;DHT22;46342;49.046;11.920;2023-06-14T02:15:17;16.60;38.90
60495;DHT22;46342;49.046;11.920;2023-06-14T02:17:46;16.60;39.10
60495;DHT22;46342;49.046;11.920;2023-06-14T02:20:15;16.60;39.60
60495;DHT22;46342;49.046;11.920;2023-06-14T02:22:41;16.60;39.40
60495;DHT22;46342;49.046;11.920;2023-06-14T02:25:07;16.50;39.40
60495;DHT22;46342;49.046;11.920;2023-06-14T02:27:33;16.50;39.50
60495;DHT22;46342;49.046;11.920;2023-06-14T02:29:59;16.50;39.60
60495;DHT22;46342;49.046;11.920;2023-06-14T02:32:25;16.40;39.60
60495;DHT22;46342;49.046;11.920;2023-06-14T02:34:53;16.40;40.30
60495;DHT22;46342;49.046;11.920;2023-06-14T02:37:19;16.40;39.70
60495;DHT22;46342;49.046;11.920;2023-06-14T02:39:45;16.30;39.70
60495;DHT22;46342;49.046;11.920;2023-06-14T02:42:10;16.30;39.80
60495;DHT22;46342;49.046;11.920;2023-06-14T02:44:36;16.20;39.80
60495;DHT22;46342;49.046;11.920;2023-06-14T02:47:02;16.20;40.50
60495;DHT22;46342;49.046;11.920;2023-06-14T02:49:28;16.20;40.00
60495;DHT22;46342;49.046;11.920;2023-06-14T02:51:55;16.10;40.00
60495;DHT22;46342;49.046;11.920;2023-06-14T02:54:20;16.10;40.10
60495;DHT22;46342;49.046;11.920;2023-06-14T02:56:46;16.10;40.20
60495;DHT22;46342;49.046;11.920;2023-06-14T02:59:11;16.00;40.20
60495;DHT22;46342;49.046;11.920;2023-06-14T03:01:39;16.00;40.30
60495;DHT22;46342;49.046;11.920;2023-06-14T03:04:07;15.90;40.20
60495;DHT22;46342;49.046;11.920;2023-06-14T03:06:32;15.90;40.30
60495;DHT22;46342;49.046;11.920;2023-06-14T03:08:59;15.90;40.30
60495;DHT22;46342;49.046;11.920;2023-06-14T03:11:27;15.80;40.40
60495;DHT22;46342;49.046;11.920;2023-06-14T03:13:52;15.80;40.50
60495;DHT22;46342;49.046;11.920;2023-06-14T03:16:19;15.80;40.60
60495;DHT22;46342;49.046;11.920;2023-06-14T03:18:45;15.80;40.60
60495;DHT22;46342;49.046;11.920;2023-06-14T03:21:11;15.80;40.70
60495;DHT22;46342;49.046;11.920;2023-06-14T03:23:36;15.80;40.80
60495;DHT22;46342;49.046;11.920;2023-06-14T03:26:02;15.70;40.80
60495;DHT22;46342;49.046;11.920;2023-06-14T03:28:28;15.70;40.80
60495;DHT22;46342;49.046;11.920;2023-06-14T03:30:53;15.70;40.90
60495;DHT22;46342;49.046;11.920;2023-06-14T03:33:19;15.70;41.00
60495;DHT22;46342;49.046;11.920;2023-06-14T03:35:44;15.70;41.10
60495;DHT22;46342;49.046;11.920;2023-06-14T03:38:10;15.70;41.10
60495;DHT22;46342;49.046;11.920;2023-06-14T03:40:36;15.70;41.20
60495;DHT22;46342;49.046;11.920;2023-06-14T03:43:01;15.70;41.20
60495;DHT22;46342;49.046;11.920;2023-06-14T03:45:27;15.60;41.20
60495;DHT22;46342;49.046;11.920;2023-06-14T03:47:53;15.60;41.30
60495;DHT22;46342;49.046;11.920;2023-06-14T03:50:19;15.60;41.40
60495;DHT22;46342;49.046;11.920;2023-06-14T03:52:50;15.60;41.50
60495;DHT22;46342;49.046;11.920;2023-06-14T03:55:16;15.60;41.90
60495;DHT22;46342;49.046;11.920;2023-06-14T03:57:41;15.60;41.60
60495;DHT22;46342;49.046;11.920;2023-06-14T04:00:09;15.60;41.70
60495;DHT22;46342;49.046;11.920;2023-06-14T04:02:35;15.60;41.90
60495;DHT22;46342;49.046;11.920;2023-06-14T04:05:02;15.60;41.80
60495;DHT22;46342;49.046;11.920;2023-06-14T04:07:28;15.60;41.90
60495;DHT22;46342;49.046;11.920;2023-06-14T04:09:55;15.60;41.90
60495;DHT22;46342;49.046;11.920;2023-06-14T04:12:20;15.60;42.60
60495;DHT22;46342;49.046;11.920;2023-06-14T04:14:46;15.60;42.00
60495;DHT22;46342;49.046;11.920;2023-06-14T04:17:12;15.60;42.10
60495;DHT22;46342;49.046;11.920;2023-06-14T04:19:37;15.60;42.20
60495;DHT22;46342;49.046;11.920;2023-06-14T04:22:03;15.60;42.30
60495;DHT22;46342;49.046;11.920;2023-06-14T04:24:29;15.60;42.30
60495;DHT22;46342;49.046;11.920;2023-06-14T04:27:00;15.60;42.30
60495;DHT22;46342;49.046;11.920;2023-06-14T04:29:26;15.70;43.30
60495;DHT22;46342;49.046;11.920;2023-06-14T04:31:54;15.60;42.10
60495;DHT22;46342;49.046;11.920;2023-06-14T04:34:27;15.60;42.30
60495;DHT22;46342;49.046;11.920;2023-06-14T04:36:59;15.60;42.40
60495;DHT22;46342;49.046;11.920;2023-06-14T04:39:26;15.60;42.40
60495;DHT22;46342;49.046;11.920;2023-06-14T04:41:53;15.70;42.50
60495;DHT22;46342;49.046;11.920;2023-06-14T04:44:23;15.70;42.60
60495;DHT22;46342;49.046;11.920;2023-06-14T04:46:49;15.70;42.60
60495;DHT22;46342;49.046;11.920;2023-06-14T04:49:15;15.70;42.70
60495;DHT22;46342;49.046;11.920;2023-06-14T04:51:42;15.80;42.80
60495;DHT22;46342;49.046;11.920;2023-06-14T04:54:11;15.80;42.90
60495;DHT22;46342;49.046;11.920;2023-06-14T04:56:41;15.80;43.20
60495;DHT22;46342;49.046;11.920;2023-06-14T04:59:07;15.80;42.90
60495;DHT22;46342;49.046;11.920;2023-06-14T05:01:34;15.90;43.00
60495;DHT22;46342;49.046;11.920;2023-06-14T05:04:00;16.00;43.10
60495;DHT22;46342;49.046;11.920;2023-06-14T05:06:26;16.00;43.20
60495;DHT22;46342;49.046;11.920;2023-06-14T05:08:53;16.10;43.30
60495;DHT22;46342;49.046;11.920;2023-06-14T05:11:19;16.10;43.30
60495;DHT22;46342;49.046;11.920;2023-06-14T05:13:44;16.10;43.40
60495;DHT22;46342;49.046;11.920;2023-06-14T05:16:11;16.10;43.40
60495;DHT22;46342;49.046;11.920;2023-06-14T05:18:36;16.20;43.40
60495;DHT22;46342;49.046;11.920;2023-06-14T05:21:03;16.20;43.50
60495;DHT22;46342;49.046;11.920;2023-06-14T05:23:30;16.30;43.50
60495;DHT22;46342;49.046;11.920;2023-06-14T05:25:56;16.30;43.50
60495;DHT22;46342;49.046;11.920;2023-06-14T05:28:22;16.40;43.50
60495;DHT22;46342;49.046;11.920;2023-06-14T05:30:48;16.40;43.50
60495;DHT22;46342;49.046;11.920;2023-06-14T05:33:13;16.50;43.70
60495;DHT22;46342;49.046;11.920;2023-06-14T05:35:39;16.50;43.70
60495;DHT22;46342;49.046;11.920;2023-06-14T05:38:04;16.60;43.80
60495;DHT22;46342;49.046;11.920;2023-06-14T05:40:31;16.60;43.70
60495;DHT22;46342;49.046;11.920;2023-06-14T05:42:56;16.60;43.70
60495;DHT22;46342;49.046;11.920;2023-06-14T05:45:22;16.70;43.80
60495;DHT22;46342;49.046;11.920;2023-06-14T05:47:47;16.80;43.80
60495;DHT22;46342;49.046;11.920;2023-06-14T05:50:13;16.80;43.80
60495;DHT22;46342;49.046;11.920;2023-06-14T05:52:38;16.90;43.80
60495;DHT22;46342;49.046;11.920;2023-06-14T05:55:05;16.90;43.90
60495;DHT22;46342;49.046;11.920;2023-06-14T05:57:31;17.00;44.10
60495;DHT22;46342;49.046;11.920;2023-06-14T05:59:56;17.00;44.00
60495;DHT22;46342;49.046;11.920;2023-06-14T06:02:22;17.10;44.00
60495;DHT22;46342;49.046;11.920;2023-06-14T06:04:47;17.10;43.90
60495;DHT22;46342;49.046;11.920;2023-06-14T06:07:13;17.20;43.90
60495;DHT22;46342;49.046;11.920;2023-06-14T06:09:39;17.20;43.90
60495;DHT22;46342;49.046;11.920;2023-06-14T06:12:06;17.20;43.90
60495;DHT22;46342;49.046;11.920;2023-06-14T06:14:32;17.30;44.20
60495;DHT22;46342;49.046;11.920;2023-06-14T06:16:58;17.30;43.90
60495;DHT22;46342;49.046;11.920;2023-06-14T06:19:24;17.20;43.80
60495;DHT22;46342;49.046;11.920;2023-06-14T06:21:49;17.30;43.90
60495;DHT22;46342;49.046;11.920;2023-06-14T06:24:15;17.30;44.00
60495;DHT22;46342;49.046;11.920;2023-06-14T06:26:41;17.40;44.10
60495;DHT22;46342;49.046;11.920;2023-06-14T06:29:07;17.40;44.20
60495;DHT22;46342;49.046;11.920;2023-06-14T06:31:32;17.40;44.20
60495;DHT22;46342;49.046;11.920;2023-06-14T06:33:58;17.40;44.30
60495;DHT22;46342;49.046;11.920;2023-06-14T06:36:24;17.50;44.40
60495;DHT22;46342;49.046;11.920;2023-06-14T06:38:50;17.50;44.50
60495;DHT22;46342;49.046;11.920;2023-06-14T06:41:15;17.60;44.60
60495;DHT22;46342;49.046;11.920;2023-06-14T06:43:41;17.70;44.80
60495;DHT22;46342;49.046;11.920;2023-06-14T06:46:07;17.70;44.80
60495;DHT22;46342;49.046;11.920;2023-06-14T06:48:32;17.80;44.90
60495;DHT22;46342;49.046;11.920;2023-06-14T06:50:58;17.80;44.80
60495;DHT22;46342;49.046;11.920;2023-06-14T06:53:23;17.90;44.90
60495;DHT22;46342;49.046;11.920;2023-06-14T06:55:49;17.90;44.90
60495;DHT22;46342;49.046;11.920;2023-06-14T06:58:14;18.00;44.90
60495;DHT22;46342;49.046;11.920;2023-06-14T07:00:40;18.10;45.00
60495;DHT22;46342;49.046;11.920;2023-06-14T07:03:06;18.20;45.10
60495;DHT22;46342;49.046;11.920;2023-06-14T07:05:32;18.20;45.00
60495;DHT22;46342;49.046;11.920;2023-06-14T07:07:57;18.30;45.00
60495;DHT22;46342;49.046;11.920;2023-06-14T07:10:23;18.30;45.00
60495;DHT22;46342;49.046;11.920;2023-06-14T07:12:50;18.40;45.10
60495;DHT22;46342;49.046;11.920;2023-06-14T07:15:15;18.50;45.10
60495;DHT22;46342;49.046;11.920;2023-06-14T07:17:41;18.60;45.70
60495;DHT22;46342;49.046;11.920;2023-06-14T07:20:08;18.60;45.00
60495;DHT22;46342;49.046;11.920;2023-06-14T07:22:41;18.70;45.00
60495;DHT22;46342;49.046;11.920;2023-06-14T07:25:10;18.80;45.20
60495;DHT22;46342;49.046;11.920;2023-06-14T07:27:39;18.80;45.00
60495;DHT22;46342;49.046;11.920;2023-06-14T07:30:06;18.90;44.90
60495;DHT22;46342;49.046;11.920;2023-06-14T07:32:32;18.90;44.90
60495;DHT22;46342;49.046;11.920;2023-06-14T07:34:57;19.00;44.80
60495;DHT22;46342;49.046;11.920;2023-06-14T07:37:23;19.10;44.80
60495;DHT22;46342;49.046;11.920;2023-06-14T07:39:49;19.20;44.80
60495;DHT22;46342;49.046;11.920;2023-06-14T07:42:14;19.30;44.80
60495;DHT22;46342;49.046;11.920;2023-06-14T07:44:40;19.30;44.70
60495;DHT22;46342;49.046;11.920;2023-06-14T07:47:05;19.40;44.60
60495;DHT22;46342;49.046;11.920;2023-06-14T07:49:31;19.40;45.00
60495;DHT22;46342;49.046;11.920;2023-06-14T07:51:56;19.50;44.40
60495;DHT22;46342;49.046;11.920;2023-06-14T07:54:22;19.60;44.20
60495;DHT22;46342;49.046;11.920;2023-06-14T07:56:51;19.60;44.20
60495;DHT22;46342;49.046;11.920;2023-06-14T07:59:17;19.70;44.20
60495;DHT22;46342;49.046;11.920;2023-06-14T08:01:43;19.70;44.00
60495;DHT22;46342;49.046;11.920;2023-06-14T08:04:12;19.80;43.90
60495;DHT22;46342;49.046;11.920;2023-06-14T08:06:38;19.90;44.00
60495;DHT22;46342;49.046;11.920;2023-06-14T08:09:04;19.90;43.90
60495;DHT22;46342;49.046;11.920;2023-06-14T08:11:31;20.00;43.90
60495;DHT22;46342;49.046;11.920;2023-06-14T08:13:56;20.10;44.00
60495;DHT22;46342;49.046;11.920;2023-06-14T08:16:22;20.20;43.90
60495;DHT22;46342;49.046;11.920;2023-06-14T08:18:48;20.30;43.90
60495;DHT22;46342;49.046;11.920;2023-06-14T08:21:14;20.30;43.80
60495;DHT22;46342;49.046;11.920;2023-06-14T08:23:40;20.40;43.60
60495;DHT22;46342;49.046;11.920;2023-06-14T08:26:08;20.50;43.60
60495;DHT22;46342;49.046;11.920;2023-06-14T08:28:34;20.60;43.40
60495;DHT22;46342;49.046;11.920;2023-06-14T08:31:00;20.70;43.50
60495;DHT22;46342;49.046;11.920;2023-06-14T08:33:25;20.80;43.50
60495;DHT22;46342;49.046;11.920;2023-06-14T08:35:51;20.90;43.30
60495;DHT22;46342;49.046;11.920;2023-06-14T08:38:16;21.00;43.40
60495;DHT22;46342;49.046;11.920;2023-06-14T08:40:42;21.10;43.20
60495;DHT22;46342;49.046;11.920;2023-06-14T08:43:08;21.20;43.20
60495;DHT22;46342;49.046;11.920;2023-06-14T08:45:33;21.30;43.20
60495;DHT22;46342;49.046;11.920;2023-06-14T08:47:59;21.40;43.20
60495;DHT22;46342;49.046;11.920;2023-06-14T08:50:27;21.50;43.00
60495;DHT22;46342;49.046;11.920;2023-06-14T08:52:56;21.60;42.90
60495;DHT22;46342;49.046;11.920;2023-06-14T08:55:27;21.70;42.70
60495;DHT22;46342;49.046;11.920;2023-06-14T08:57:54;21.80;42.80
60495;DHT22;46342;49.046;11.920;2023-06-14T09:00:21;21.90;42.70
60495;DHT22;46342;49.046;11.920;2023-06-14T09:02:47;21.90;42.60
60495;DHT22;46342;49.046;11.920;2023-06-14T09:05:14;22.00;42.40
60495;DHT22;46342;49.046;11.920;2023-06-14T09:07:40;22.10;42.10
60495;DHT22;46342;49.046;11.920;2023-06-14T09:10:16;22.10;42.00
60495;DHT22;46342;49.046;11.920;2023-06-14T09:12:42;22.30;41.90
60495;DHT22;46342;49.046;11.920;2023-06-14T09:15:09;22.30;42.00
60495;DHT22;46342;49.046;11.920;2023-06-14T09:17:38;22.40;42.00
60495;DHT22;46342;49.046;11.920;2023-06-14T09:20:08;22.50;42.00
60495;DHT22;46342;49.046;11.920;2023-06-14T09:22:43;22.50;42.10
60495;DHT22;46342;49.046;11.920;2023-06-14T09:25:09;22.60;42.20
60495;DHT22;46342;49.046;11.920;2023-06-14T09:27:35;22.80;42.10
60495;DHT22;46342;49.046;11.920;2023-06-14T09:30:04;22.90;41.90
60495;DHT22;46342;49.046;11.920;2023-06-14T09:32:30;23.00;41.60
60495;DHT22;46342;49.046;11.920;2023-06-14T09:34:56;23.10;41.50
60495;DHT22;46342;49.046;11.920;2023-06-14T09:37:29;23.20;41.40
60495;DHT22;46342;49.046;11.920;2023-06-14T09:39:55;23.30;41.00
60495;DHT22;46342;49.046;11.920;2023-06-14T09:42:20;23.40;41.00
60495;DHT22;46342;49.046;11.920;2023-06-14T09:44:49;23.40;40.60
60495;DHT22;46342;49.046;11.920;2023-06-14T09:47:16;23.50;40.30
60495;DHT22;46342;49.046;11.920;2023-06-14T09:49:42;23.50;40.30
60495;DHT22;46342;49.046;11.920;2023-06-14T09:52:12;23.60;40.20
60495;DHT22;46342;49.046;11.920;2023-06-14T09:54:42;23.70;40.10
60495;DHT22;46342;49.046;11.920;2023-06-14T09:57:22;23.70;39.90
60495;DHT22;46342;49.046;11.920;2023-06-14T09:59:48;23.70;39.80
60495;DHT22;46342;49.046;11.920;2023-06-14T10:02:45;23.80;40.00
60495;DHT22;46342;49.046;11.920;2023-06-14T10:05:17;23.90;39.70
60495;DHT22;46342;49.046;11.920;2023-06-14T10:07:49;23.90;40.00
60495;DHT22;46342;49.046;11.920;2023-06-14T10:10:15;24.10;40.00
60495;DHT22;46342;49.046;11.920;2023-06-14T10:12:41;24.10;40.00
60495;DHT22;46342;49.046;11.920;2023-06-14T10:15:09;24.20;40.10
60495;DHT22;46342;49.046;11.920;2023-06-14T10:17:59;24.30;39.90
60495;DHT22;46342;49.046;11.920;2023-06-14T10:20:42;24.50;39.70
60495;DHT22;46342;49.046;11.920;2023-06-14T10:23:19;24.60;39.40
60495;DHT22;46342;49.046;11.920;2023-06-14T10:25:50;24.80;39.60
60495;DHT22;46342;49.046;11.920;2023-06-14T10:28:19;24.80;39.10
60495;DHT22;46342;49.046;11.920;2023-06-14T10:31:07;24.90;39.10
60495;DHT22;46342;49.046;11.920;2023-06-14T10:33:35;25.00;38.40
60495;DHT22;46342;49.046;11.920;2023-06-14T10:38:46;25.10;38.70
60495;DHT22;46342;49.046;11.920;2023-06-14T10:41:11;25.00;38.50
60495;DHT22;46342;49.046;11.920;2023-06-14T10:43:37;25.00;38.40
60495;DHT22;46342;49.046;11.920;2023-06-14T10:48:41;25.10;37.90
60495;DHT22;46342;49.046;11.920;2023-06-14T10:51:15;25.10;37.80
60495;DHT22;46342;49.046;11.920;2023-06-14T10:53:46;25.10;37.40
60495;DHT22;46342;49.046;11.920;2023-06-14T10:56:31;25.00;38.50
60495;DHT22;46342;49.046;11.920;2023-06-14T10:58:58;25.10;37.40
60495;DHT22;46342;49.046;11.920;2023-06-14T11:01:41;25.10;37.90
60495;DHT22;46342;49.046;11.920;2023-06-14T11:04:10;25.10;37.30
60495;DHT22;46342;49.046;11.920;2023-06-14T11:06:46;25.10;37.70
60495;DHT22;46342;49.046;11.920;2023-06-14T11:09:38;25.30;37.10
60495;DHT22;46342;49.046;11.920;2023-06-14T11:12:10;25.30;36.80
60495;DHT22;46342;49.046;11.920;2023-06-14T11:14:39;25.40;37.30
60495;DHT22;46342;49.046;11.920;2023-06-14T11:17:05;25.50;37.30
60495;DHT22;46342;49.046;11.920;2023-06-14T11:19:31;25.50;37.10
60495;DHT22;46342;49.046;11.920;2023-06-14T11:21:57;25.60;37.10
60495;DHT22;46342;49.046;11.920;2023-06-14T11:24:22;25.60;37.30
60495;DHT22;46342;49.046;11.920;2023-06-14T11:26:48;25.70;37.20
60495;DHT22;46342;49.046;11.920;2023-06-14T11:29:15;25.70;37.10
60495;DHT22;46342;49.046;11.920;2023-06-14T11:31:45;25.70;36.90
60495;DHT22;46342;49.046;11.920;2023-06-14T11:34:12;25.80;36.80
60495;DHT22;46342;49.046;11.920;2023-06-14T11:36:38;25.80;36.70
60495;DHT22;46342;49.046;11.920;2023-06-14T11:39:05;25.90;36.70
60495;DHT22;46342;49.046;11.920;2023-06-14T11:41:37;25.90;36.70
60495;DHT22;46342;49.046;11.920;2023-06-14T11:44:03;25.90;36.60
60495;DHT22;46342;49.046;11.920;2023-06-14T11:46:29;25.90;36.60
60495;DHT22;46342;49.046;11.920;2023-06-14T11:48:55;25.90;36.30
60495;DHT22;46342;49.046;11.920;2023-06-14T11:51:21;25.90;36.30
60495;DHT22;46342;49.046;11.920;2023-06-14T11:53:46;25.90;36.20
60495;DHT22;46342;49.046;11.920;2023-06-14T11:56:13;25.90;36.00
60495;DHT22;46342;49.046;11.920;2023-06-14T11:58:38;25.90;36.00
60495;DHT22;46342;49.046;11.920;2023-06-14T12:01:04;25.90;35.90
60495;DHT22;46342;49.046;11.920;2023-06-14T12:03:30;25.90;36.00
60495;DHT22;46342;49.046;11.920;2023-06-14T12:06:05;26.00;36.10
60495;DHT22;46342;49.046;11.920;2023-06-14T12:08:38;26.10;35.70
60495;DHT22;46342;49.046;11.920;2023-06-14T12:11:06;26.10;35.40
60495;DHT22;46342;49.046;11.920;2023-06-14T12:13:34;26.20;35.70
60495;DHT22;46342;49.046;11.920;2023-06-14T12:15:59;26.20;35.70
60495;DHT22;46342;49.046;11.920;2023-06-14T12:18:38;26.30;35.70
60495;DHT22;46342;49.046;11.920;2023-06-14T12:21:05;26.40;35.20
60495;DHT22;46342;49.046;11.920;2023-06-14T12:23:45;26.40;35.50
60495;DHT22;46342;49.046;11.920;2023-06-14T12:26:18;26.60;34.60
60495;DHT22;46342;49.046;11.920;2023-06-14T12:28:45;26.70;34.50
60495;DHT22;46342;49.046;11.920;2023-06-14T12:31:12;26.70;35.00
60495;DHT22;46342;49.046;11.920;2023-06-14T12:33:39;26.80;34.90
60495;DHT22;46342;49.046;11.920;2023-06-14T12:36:06;26.90;34.80
60495;DHT22;46342;49.046;11.920;2023-06-14T12:38:33;27.00;34.70
60495;DHT22;46342;49.046;11.920;2023-06-14T12:40:58;27.00;34.60
60495;DHT22;46342;49.046;11.920;2023-06-14T12:43:24;27.10;34.60
60495;DHT22;46342;49.046;11.920;2023-06-14T12:45:49;27.20;34.40
60495;DHT22;46342;49.046;11.920;2023-06-14T12:48:15;27.20;34.10
60495;DHT22;46342;49.046;11.920;2023-06-14T12:50:41;27.30;34.00
60495;DHT22;46342;49.046;11.920;2023-06-14T12:53:07;27.30;33.80
60495;DHT22;46342;49.046;11.920;2023-06-14T12:55:32;27.40;33.60
60495;DHT22;46342;49.046;11.920;2023-06-14T12:57:58;27.40;33.30
60495;DHT22;46342;49.046;11.920;2023-06-14T13:00:24;27.50;33.90
60495;DHT22;46342;49.046;11.920;2023-06-14T13:02:51;27.60;33.30
60495;DHT22;46342;49.046;11.920;2023-06-14T13:05:17;27.70;33.30
60495;DHT22;46342;49.046;11.920;2023-06-14T13:07:43;27.80;33.20
60495;DHT22;46342;49.046;11.920;2023-06-14T13:10:10;27.90;33.30
60495;DHT22;46342;49.046;11.920;2023-06-14T13:12:36;27.90;33.30
60495;DHT22;46342;49.046;11.920;2023-06-14T13:15:02;28.10;33.10
60495;DHT22;46342;49.046;11.920;2023-06-14T13:17:27;28.20;32.80
60495;DHT22;46342;49.046;11.920;2023-06-14T13:19:53;28.20;32.60
60495;DHT22;46342;49.046;11.920;2023-06-14T13:22:18;28.20;32.40
60495;DHT22;46342;49.046;11.920;2023-06-14T13:24:44;28.30;32.30
60495;DHT22;46342;49.046;11.920;2023-06-14T13:27:10;28.20;32.20
60495;DHT22;46342;49.046;11.920;2023-06-14T13:29:36;28.20;32.60
60495;DHT22;46342;49.046;11.920;2023-06-14T13:32:02;28.10;31.90
60495;DHT22;46342;49.046;11.920;2023-06-14T13:34:28;28.10;32.00
60495;DHT22;46342;49.046;11.920;2023-06-14T13:36:54;28.00;31.90
60495;DHT22;46342;49.046;11.920;2023-06-14T13:39:19;27.90;31.90
60495;DHT22;46342;49.046;11.920;2023-06-14T13:41:45;27.90;32.00
60495;DHT22;46342;49.046;11.920;2023-06-14T13:44:10;27.90;32.00
60495;DHT22;46342;49.046;11.920;2023-06-14T13:46:41;27.80;32.00
60495;DHT22;46342;49.046;11.920;2023-06-14T13:49:08;27.70;32.20
60495;DHT22;46342;49.046;11.920;2023-06-14T13:51:34;27.70;32.20
60495;DHT22;46342;49.046;11.920;2023-06-14T13:54:00;27.60;32.20
60495;DHT22;46342;49.046;11.920;2023-06-14T13:56:26;27.60;32.50
60495;DHT22;46342;49.046;11.920;2023-06-14T13:58:52;27.50;32.40
60495;DHT22;46342;49.046;11.920;2023-06-14T14:01:18;27.50;32.40
60495;DHT22;46342;49.046;11.920;2023-06-14T14:03:48;27.40;32.30
60495;DHT22;46342;49.046;11.920;2023-06-14T14:06:15;27.40;32.50
60495;DHT22;46342;49.046;11.920;2023-06-14T14:08:41;27.40;32.60
60495;DHT22;46342;49.046;11.920;2023-06-14T14:11:07;27.40;32.50
60495;DHT22;46342;49.046;11.920;2023-06-14T14:13:33;27.40;32.30
60495;DHT22;46342;49.046;11.920;2023-06-14T14:15:59;27.40;32.30
60495;DHT22;46342;49.046;11.920;2023-06-14T14:18:25;27.50;32.30
60495;DHT22;46342;49.046;11.920;2023-06-14T14:20:51;27.50;32.20
60495;DHT22;46342;49.046;11.920;2023-06-14T14:23:16;27.50;32.30
60495;DHT22;46342;49.046;11.920;2023-06-14T14:25:42;27.50;32.00
60495;DHT22;46342;49.046;11.920;2023-06-14T14:28:07;27.50;31.90
60495;DHT22;46342;49.046;11.920;2023-06-14T14:30:33;27.50;31.90
60495;DHT22;46342;49.046;11.920;2023-06-14T14:32:59;27.50;31.90
60495;DHT22;46342;49.046;11.920;2023-06-14T14:35:25;27.60;32.20
60495;DHT22;46342;49.046;11.920;2023-06-14T14:37:55;27.60;32.20
60495;DHT22;46342;49.046;11.920;2023-06-14T14:40:21;27.70;32.00
60495;DHT22;46342;49.046;11.920;2023-06-14T14:42:47;27.70;31.80
60495;DHT22;46342;49.046;11.920;2023-06-14T14:45:12;27.80;31.90
60495;DHT22;46342;49.046;11.920;2023-06-14T14:47:38;27.90;32.10
60495;DHT22;46342;49.046;11.920;2023-06-14T14:50:04;27.90;32.00
60495;DHT22;46342;49.046;11.920;2023-06-14T14:52:34;28.00;31.90
60495;DHT22;46342;49.046;11.920;2023-06-14T14:54:59;28.10;31.90
60495;DHT22;46342;49.046;11.920;2023-06-14T14:57:26;28.10;31.90
60495;DHT22;46342;49.046;11.920;2023-06-14T14:59:52;28.20;32.00
60495;DHT22;46342;49.046;11.920;2023-06-14T15:02:17;28.20;32.00
60495;DHT22;46342;49.046;11.920;2023-06-14T15:04:43;28.30;31.80
60495;DHT22;46342;49.046;11.920;2023-06-14T15:07:08;28.30;31.60
60495;DHT22;46342;49.046;11.920;2023-06-14T15:09:34;28.30;31.70
60495;DHT22;46342;49.046;11.920;2023-06-14T15:12:00;28.30;31.60
60495;DHT22;46342;49.046;11.920;2023-06-14T15:14:25;28.30;31.50
60495;DHT22;46342;49.046;11.920;2023-06-14T15:16:51;28.30;31.40
60495;DHT22;46342;49.046;11.920;2023-06-14T15:19:18;28.30;31.20